createdAt,value
2018-04-30T00:00:22.978Z,57.78
2018-04-30T00:01:22.730Z,57.89
2018-04-30T00:02:22.780Z,57.91
2018-04-30T00:03:22.750Z,57.76
2018-04-30T00:04:22.711Z,57.9
2018-04-30T00:05:22.798Z,58.19
2018-04-30T00:06:22.729Z,58.51
2018-04-30T00:07:22.713Z,58.53
2018-04-30T00:08:22.742Z,58.31
2018-04-30T00:09:22.694Z,58.48
2018-04-30T00:10:23.098Z,58.54
2018-04-30T00:11:22.717Z,58.63
2018-04-30T00:12:22.737Z,58.95
2018-04-30T00:13:22.741Z,58.33
2018-04-30T00:14:22.769Z,58.31
2018-04-30T00:15:22.776Z,58.43
2018-04-30T00:16:22.764Z,58.68
2018-04-30T00:17:22.762Z,58.5
2018-04-30T00:18:22.875Z,57.35
2018-04-30T00:19:22.770Z,57.22
2018-04-30T00:20:22.736Z,55.9
2018-04-30T00:21:22.735Z,56.29
2018-04-30T00:22:22.757Z,55.77
2018-04-30T00:23:22.841Z,55.53
2018-04-30T00:24:22.759Z,55.57
2018-04-30T00:25:22.838Z,55.62
2018-04-30T00:26:22.787Z,55.86
2018-04-30T00:27:22.813Z,55.58
2018-04-30T00:28:22.786Z,55.35
2018-04-30T00:29:22.747Z,55.21
2018-04-30T00:30:22.789Z,54.86
2018-04-30T00:31:22.720Z,54.47
2018-04-30T00:32:22.744Z,54.57
2018-04-30T00:33:22.888Z,54.57
2018-04-30T00:34:22.758Z,54.71
2018-04-30T00:35:22.760Z,54.72
2018-04-30T00:36:22.789Z,54.57
2018-04-30T00:37:22.726Z,54.44
2018-04-30T00:38:22.731Z,54.47
2018-04-30T00:39:22.844Z,54.63
2018-04-30T00:40:22.796Z,54.49
2018-04-30T00:41:22.743Z,54.68
2018-04-30T00:42:22.727Z,54.87
2018-04-30T00:43:22.744Z,54.93
2018-04-30T00:44:22.828Z,55.07
2018-04-30T00:45:22.760Z,54.9
2018-04-30T00:46:22.739Z,55.11
2018-04-30T00:47:22.746Z,54.8
2018-04-30T00:48:22.719Z,55
2018-04-30T00:49:22.777Z,54.99
2018-04-30T00:50:22.721Z,55.32
2018-04-30T00:51:22.771Z,54.79
2018-04-30T00:52:22.730Z,54.63
2018-04-30T00:53:22.754Z,54.82
2018-04-30T00:54:22.736Z,54.45
2018-04-30T00:55:22.737Z,54.69
2018-04-30T00:56:22.807Z,54.86
2018-04-30T00:57:22.731Z,54.85
2018-04-30T00:58:22.864Z,54.03
2018-04-30T00:59:22.725Z,54.28
2018-04-30T01:00:22.693Z,54.17
2018-04-30T01:01:22.759Z,54.33
2018-04-30T01:02:22.752Z,54.28
2018-04-30T01:03:22.819Z,54.41
2018-04-30T01:04:22.730Z,54.43
2018-04-30T01:05:22.720Z,54.27
2018-04-30T01:06:22.906Z,53.9
2018-04-30T01:07:22.846Z,53.96
2018-04-30T01:08:22.722Z,53.35
2018-04-30T01:09:22.739Z,53.45
2018-04-30T01:10:22.785Z,53.32
2018-04-30T01:11:22.763Z,53.61
2018-04-30T01:12:22.731Z,53.75
2018-04-30T01:13:22.714Z,53.6
2018-04-30T01:14:22.730Z,53.51
2018-04-30T01:15:22.677Z,53.47
2018-04-30T01:16:22.702Z,53.32
2018-04-30T01:17:22.701Z,52.77
2018-04-30T01:18:22.729Z,52.3
2018-04-30T01:19:22.734Z,52.53
2018-04-30T01:20:22.724Z,52.62
2018-04-30T01:21:22.711Z,52.52
2018-04-30T01:22:22.746Z,52.34
2018-04-30T01:23:22.728Z,52.26
2018-04-30T01:24:22.716Z,52.42
2018-04-30T01:25:22.722Z,52.13
2018-04-30T01:26:22.725Z,52.1
2018-04-30T01:27:22.699Z,52.11
2018-04-30T01:28:22.725Z,52.1
2018-04-30T01:29:22.736Z,52.13
2018-04-30T01:30:22.690Z,52.35
2018-04-30T01:31:22.738Z,52.29
2018-04-30T01:32:22.693Z,52.33
2018-04-30T01:33:22.812Z,52.49
2018-04-30T01:34:22.698Z,52.72
2018-04-30T01:35:22.692Z,52.98
2018-04-30T01:36:22.753Z,52.85
2018-04-30T01:37:22.746Z,52.91
2018-04-30T01:38:22.731Z,52.91
2018-04-30T01:39:22.857Z,53.06
2018-04-30T01:40:22.694Z,52.93
2018-04-30T01:41:23.110Z,52.92
2018-04-30T01:42:22.705Z,53.03
2018-04-30T01:43:22.681Z,53.04
2018-04-30T01:44:22.729Z,53.21
2018-04-30T01:45:22.718Z,53.46
2018-04-30T01:46:22.730Z,53.4
2018-04-30T01:47:22.864Z,53.49
2018-04-30T01:48:22.728Z,53.42
2018-04-30T01:49:22.745Z,53.54
2018-04-30T01:50:22.753Z,53.8
2018-04-30T01:51:22.710Z,53.92
2018-04-30T01:52:22.833Z,54.06
2018-04-30T01:53:22.791Z,54.05
2018-04-30T01:54:22.752Z,53.88
2018-04-30T01:55:22.755Z,54.05
2018-04-30T01:56:22.742Z,54
2018-04-30T01:57:22.754Z,54.2
2018-04-30T01:58:22.747Z,54.07
2018-04-30T01:59:22.730Z,54.34
2018-04-30T02:00:22.710Z,54.27
2018-04-30T02:01:22.739Z,54.36
2018-04-30T02:02:22.740Z,54.17
2018-04-30T02:03:22.815Z,54.33
2018-04-30T02:04:22.724Z,54.53
2018-04-30T02:05:22.925Z,54.59
2018-04-30T02:06:22.722Z,54.66
2018-04-30T02:07:22.720Z,54.67
2018-04-30T02:08:22.722Z,54.8
2018-04-30T02:09:22.741Z,54.99
2018-04-30T02:10:22.723Z,54.57
2018-04-30T02:11:22.839Z,54.76
2018-04-30T02:12:22.724Z,54.72
2018-04-30T02:13:22.711Z,54.9
2018-04-30T02:14:22.742Z,54.72
2018-04-30T02:15:22.730Z,54.72
2018-04-30T02:16:22.756Z,54.85
2018-04-30T02:17:22.729Z,54.92
2018-04-30T02:18:22.752Z,54.98
2018-04-30T02:19:22.789Z,55.19
2018-04-30T02:20:22.701Z,54.93
2018-04-30T02:21:22.747Z,55.05
2018-04-30T02:22:22.714Z,55.08
2018-04-30T02:23:22.760Z,55.07
2018-04-30T02:24:22.739Z,55.03
2018-04-30T02:25:22.774Z,54.95
2018-04-30T02:26:22.712Z,54.88
2018-04-30T02:27:22.757Z,55.23
2018-04-30T02:28:22.769Z,55.17
2018-04-30T02:29:22.785Z,55.42
2018-04-30T02:30:22.779Z,55.49
2018-04-30T02:31:22.749Z,55.47
2018-04-30T02:32:22.724Z,55.59
2018-04-30T02:33:22.717Z,55.61
2018-04-30T02:34:22.773Z,55.44
2018-04-30T02:35:22.767Z,55.64
2018-04-30T02:36:22.771Z,55.6
2018-04-30T02:37:22.737Z,55.32
2018-04-30T02:38:22.790Z,55.28
2018-04-30T02:39:22.741Z,55.52
2018-04-30T02:40:22.833Z,55.24
2018-04-30T02:41:22.762Z,55.43
2018-04-30T02:42:22.733Z,55.69
2018-04-30T02:43:22.777Z,55.68
2018-04-30T02:44:22.859Z,55.57
2018-04-30T02:45:22.798Z,55.54
2018-04-30T02:46:22.781Z,55.71
2018-04-30T02:47:22.736Z,55.71
2018-04-30T02:48:22.762Z,55.68
2018-04-30T02:49:22.795Z,56.13
2018-04-30T02:50:22.928Z,55.95
2018-04-30T02:51:22.778Z,55.95
2018-04-30T02:52:22.796Z,55.81
2018-04-30T02:53:22.775Z,55.44
2018-04-30T02:54:22.865Z,55.14
2018-04-30T02:55:22.817Z,55.4
2018-04-30T02:56:22.740Z,55.34
2018-04-30T02:57:22.748Z,55.09
2018-04-30T02:58:22.763Z,55.2
2018-04-30T02:59:22.780Z,55.62
2018-04-30T03:00:22.806Z,55.93
2018-04-30T03:01:22.854Z,56.02
2018-04-30T03:02:22.793Z,55.78
2018-04-30T03:03:22.786Z,55.69
2018-04-30T03:04:22.794Z,55.93
2018-04-30T03:05:22.829Z,56.18
2018-04-30T03:06:22.818Z,56.13
2018-04-30T03:07:22.910Z,56.16
2018-04-30T03:08:22.790Z,56.39
2018-04-30T03:09:22.757Z,56.38
2018-04-30T03:10:22.812Z,56.49
2018-04-30T03:11:22.800Z,56.3
2018-04-30T03:12:22.776Z,56.33
2018-04-30T03:13:22.803Z,56.53
2018-04-30T03:14:22.743Z,56.55
2018-04-30T03:15:22.830Z,56.4
2018-04-30T03:16:22.795Z,56.45
2018-04-30T03:17:22.793Z,56.67
2018-04-30T03:18:22.808Z,56.93
2018-04-30T03:19:22.890Z,56.95
2018-04-30T03:20:23.064Z,57.14
2018-04-30T03:21:22.844Z,56.71
2018-04-30T03:22:22.767Z,56.77
2018-04-30T03:23:22.780Z,56.93
2018-04-30T03:24:22.824Z,57.34
2018-04-30T03:25:22.779Z,57.72
2018-04-30T03:26:22.814Z,57.34
2018-04-30T03:27:22.859Z,57.13
2018-04-30T03:28:22.779Z,57.09
2018-04-30T03:29:22.841Z,57.35
2018-04-30T03:30:22.802Z,57.68
2018-04-30T03:31:22.766Z,57.67
2018-04-30T03:32:22.768Z,57.64
2018-04-30T03:33:22.811Z,57.55
2018-04-30T03:34:22.782Z,57.63
2018-04-30T03:35:22.837Z,58.08
2018-04-30T03:36:22.761Z,58.31
2018-04-30T03:37:22.806Z,58.03
2018-04-30T03:38:22.745Z,58.5
2018-04-30T03:39:22.846Z,58.33
2018-04-30T03:40:22.758Z,58.62
2018-04-30T03:41:22.760Z,58.69
2018-04-30T03:42:22.760Z,58.85
2018-04-30T03:43:22.756Z,58.9
2018-04-30T03:44:22.744Z,58.96
2018-04-30T03:45:22.768Z,59.38
2018-04-30T03:46:22.763Z,59.49
2018-04-30T03:47:22.752Z,59.52
2018-04-30T03:48:23.056Z,59.72
2018-04-30T03:49:22.761Z,59.73
2018-04-30T03:50:22.786Z,59.36
2018-04-30T03:51:22.759Z,60.11
2018-04-30T03:52:22.817Z,60.12
2018-04-30T03:53:22.935Z,60.35
2018-04-30T03:54:22.738Z,60.27
2018-04-30T03:55:22.810Z,60.49
2018-04-30T03:56:22.764Z,60.64
2018-04-30T03:57:22.762Z,60.82
2018-04-30T03:58:22.820Z,61.06
2018-04-30T03:59:22.885Z,61.47
2018-04-30T04:00:22.820Z,61.67
2018-04-30T04:01:22.832Z,62.09
2018-04-30T04:02:22.859Z,62.14
2018-04-30T04:03:22.805Z,62.2
2018-04-30T04:04:22.963Z,62.94
2018-04-30T04:05:22.786Z,63.16
2018-04-30T04:06:22.816Z,64.06
2018-04-30T04:07:22.764Z,64.89
2018-04-30T04:08:22.787Z,64.86
2018-04-30T04:09:22.778Z,64.7
2018-04-30T04:10:22.776Z,65.15
2018-04-30T04:11:22.796Z,65.94
2018-04-30T04:12:22.763Z,65.67
2018-04-30T04:13:22.874Z,66.44
2018-04-30T04:14:22.793Z,66.58
2018-04-30T04:15:22.768Z,67.05
2018-04-30T04:16:22.781Z,67.71
2018-04-30T04:17:22.765Z,67.57
2018-04-30T04:18:22.780Z,67.61
2018-04-30T04:19:22.879Z,68.37
2018-04-30T04:20:22.866Z,67.87
2018-04-30T04:21:22.777Z,67.51
2018-04-30T04:22:22.805Z,67.33
2018-04-30T04:23:22.794Z,67.43
2018-04-30T04:24:22.809Z,68.66
2018-04-30T04:25:22.818Z,68.75
2018-04-30T04:26:22.774Z,68.88
2018-04-30T04:27:22.849Z,69.24
2018-04-30T04:28:22.922Z,68.76
2018-04-30T04:29:22.783Z,68.09
2018-04-30T04:30:22.885Z,68.73
2018-04-30T04:31:22.839Z,68.92
2018-04-30T04:32:22.905Z,68.79
2018-04-30T04:33:22.774Z,68.61
2018-04-30T04:34:22.796Z,67.62
2018-04-30T04:35:22.775Z,69.05
2018-04-30T04:36:22.921Z,68.36
2018-04-30T04:37:22.763Z,68.2
2018-04-30T04:38:22.829Z,68.43
2018-04-30T04:39:23.003Z,68.59
2018-04-30T04:40:22.800Z,67.56
2018-04-30T04:41:22.845Z,69.1
2018-04-30T04:42:22.770Z,68.93
2018-04-30T04:43:22.801Z,68.37
2018-04-30T04:44:22.824Z,67.36
2018-04-30T04:45:22.819Z,69.66
2018-04-30T04:46:22.806Z,68.91
2018-04-30T04:47:22.841Z,69.53
2018-04-30T04:48:22.792Z,69.65
2018-04-30T04:49:22.796Z,68.86
2018-04-30T04:50:22.859Z,69.83
2018-04-30T04:51:22.811Z,69.93
2018-04-30T04:52:22.857Z,68.83
2018-04-30T04:53:22.808Z,68.62
2018-04-30T04:54:22.791Z,69.35
2018-04-30T04:55:22.804Z,69.7
2018-04-30T04:56:22.831Z,68.91
2018-04-30T04:57:22.821Z,69.5
2018-04-30T04:58:22.801Z,69.53
2018-04-30T04:59:22.802Z,69.58
2018-04-30T05:00:22.823Z,69.88
2018-04-30T05:01:22.797Z,69.11
2018-04-30T05:02:22.947Z,69.54
2018-04-30T05:03:22.787Z,68.75
2018-04-30T05:04:22.964Z,69.1
2018-04-30T05:05:22.820Z,68.3
2018-04-30T05:06:22.876Z,68.32
2018-04-30T05:07:22.828Z,68.55
2018-04-30T05:08:22.819Z,67.67
2018-04-30T05:09:22.836Z,67.54
2018-04-30T05:10:22.835Z,68.11
2018-04-30T05:11:22.783Z,68.62
2018-04-30T05:12:22.829Z,69.15
2018-04-30T05:13:22.793Z,68.84
2018-04-30T05:14:22.813Z,68.13
2018-04-30T05:15:22.880Z,68.54
2018-04-30T05:16:22.850Z,68.15
2018-04-30T05:17:22.838Z,67.83
2018-04-30T05:18:22.976Z,67.97
2018-04-30T05:19:22.835Z,68.27
2018-04-30T05:20:22.812Z,68.5
2018-04-30T05:21:22.832Z,68.6
2018-04-30T05:22:22.870Z,68.48
2018-04-30T05:23:23.178Z,67.87
2018-04-30T05:24:22.918Z,67.76
2018-04-30T05:25:22.915Z,67.67
2018-04-30T05:26:22.835Z,67.65
2018-04-30T05:27:22.852Z,67.97
2018-04-30T05:28:22.870Z,67.99
2018-04-30T05:29:22.803Z,68.29
2018-04-30T05:30:22.856Z,67.77
2018-04-30T05:31:22.896Z,68.19
2018-04-30T05:32:22.852Z,67.35
2018-04-30T05:33:22.822Z,67.17
2018-04-30T05:34:22.850Z,66.87
2018-04-30T05:35:22.873Z,66.85
2018-04-30T05:36:22.825Z,66.68
2018-04-30T05:37:22.851Z,66.45
2018-04-30T05:38:22.847Z,66.38
2018-04-30T05:39:22.842Z,65.76
2018-04-30T05:40:22.827Z,65.67
2018-04-30T05:41:22.849Z,66.44
2018-04-30T05:42:22.882Z,66.23
2018-04-30T05:43:22.828Z,65.7
2018-04-30T05:44:23.233Z,65.66
2018-04-30T05:45:22.859Z,65.21
2018-04-30T05:46:22.840Z,65.74
2018-04-30T05:47:22.809Z,64.02
2018-04-30T05:48:22.887Z,64.34
2018-04-30T05:49:22.908Z,65.14
2018-04-30T05:50:22.821Z,66.09
2018-04-30T05:51:22.842Z,65.68
2018-04-30T05:52:22.810Z,65.67
2018-04-30T05:53:22.822Z,64.47
2018-04-30T05:54:22.805Z,64.73
2018-04-30T05:55:22.851Z,65.32
2018-04-30T05:56:22.818Z,65.92
2018-04-30T05:57:22.857Z,67.51
2018-04-30T05:58:22.851Z,66.45
2018-04-30T05:59:22.836Z,65.83
2018-04-30T06:00:22.900Z,65.89
2018-04-30T06:01:22.863Z,66.33
2018-04-30T06:02:22.944Z,65.2
2018-04-30T06:03:22.862Z,65.42
2018-04-30T06:04:23.273Z,65.33
2018-04-30T06:05:22.961Z,65.23
2018-04-30T06:06:22.889Z,64.97
2018-04-30T06:07:22.843Z,64.54
2018-04-30T06:08:22.841Z,64.76
2018-04-30T06:09:22.858Z,64.9
2018-04-30T06:10:22.861Z,66.06
2018-04-30T06:11:22.822Z,65.32
2018-04-30T06:12:22.832Z,65.19
2018-04-30T06:13:22.845Z,65.4
2018-04-30T06:14:22.841Z,65.22
2018-04-30T06:15:22.860Z,65.98
2018-04-30T06:16:22.817Z,65.26
2018-04-30T06:17:23.157Z,65.28
2018-04-30T06:18:22.843Z,65.93
2018-04-30T06:19:22.825Z,64.93
2018-04-30T06:20:22.838Z,65.97
2018-04-30T06:21:22.870Z,65.53
2018-04-30T06:22:22.885Z,65.51
2018-04-30T06:23:22.835Z,66.14
2018-04-30T06:24:22.846Z,65.75
2018-04-30T06:25:22.826Z,66.07
2018-04-30T06:26:22.855Z,65.8
2018-04-30T06:27:22.853Z,65.66
2018-04-30T06:28:22.859Z,65.62
2018-04-30T06:29:22.836Z,65.21
2018-04-30T06:30:22.871Z,65.03
2018-04-30T06:31:22.880Z,65.26
2018-04-30T06:32:24.296Z,64.97
2018-04-30T06:33:22.866Z,64.7
2018-04-30T06:34:22.832Z,65.35
2018-04-30T06:35:22.878Z,65.37
2018-04-30T06:36:22.834Z,64.73
2018-04-30T06:37:22.838Z,65.3
2018-04-30T06:38:23.198Z,65.57
2018-04-30T06:39:22.900Z,65.53
2018-04-30T06:40:22.831Z,65.81
2018-04-30T06:41:22.848Z,65.22
2018-04-30T06:42:22.864Z,65.4
2018-04-30T06:43:22.913Z,65.24
2018-04-30T06:44:22.860Z,65.2
2018-04-30T06:45:22.890Z,65.25
2018-04-30T06:46:22.857Z,65.37
2018-04-30T06:47:22.850Z,65.16
2018-04-30T06:48:22.857Z,65.78
2018-04-30T06:49:23.007Z,65.68
2018-04-30T06:50:22.949Z,65.71
2018-04-30T06:51:22.862Z,65.11
2018-04-30T06:52:22.919Z,64.91
2018-04-30T06:53:22.831Z,64.9
2018-04-30T06:54:22.913Z,65.74
2018-04-30T06:55:22.855Z,65.57
2018-04-30T06:56:22.835Z,65.12
2018-04-30T06:57:22.830Z,65.44
2018-04-30T06:58:22.865Z,65.32
2018-04-30T06:59:22.863Z,65.92
2018-04-30T07:00:22.859Z,65.25
2018-04-30T07:01:22.863Z,65.07
2018-04-30T07:02:22.894Z,65.35
2018-04-30T07:03:22.862Z,65.3
2018-04-30T07:04:22.853Z,65.36
2018-04-30T07:05:23.000Z,64.12
2018-04-30T07:06:22.846Z,64.06
2018-04-30T07:07:22.892Z,63.74
2018-04-30T07:08:22.843Z,64.3
2018-04-30T07:09:22.920Z,63.7
2018-04-30T07:10:22.935Z,64.12
2018-04-30T07:11:22.900Z,64.09
2018-04-30T07:12:22.848Z,63.58
2018-04-30T07:13:22.876Z,63.18
2018-04-30T07:14:22.891Z,64.33
2018-04-30T07:15:22.871Z,62.95
2018-04-30T07:16:22.856Z,63.74
2018-04-30T07:17:23.159Z,63.94
2018-04-30T07:18:22.863Z,64.81
2018-04-30T07:19:22.880Z,64.28
2018-04-30T07:20:22.855Z,63.6
2018-04-30T07:21:22.866Z,63.32
2018-04-30T07:22:22.879Z,63.02
2018-04-30T07:23:22.888Z,63.61
2018-04-30T07:24:22.864Z,64.15
2018-04-30T07:25:22.871Z,64.11
2018-04-30T07:26:22.860Z,63.5
2018-04-30T07:27:22.868Z,63.46
2018-04-30T07:28:22.881Z,62.8
2018-04-30T07:29:22.893Z,62.5
2018-04-30T07:30:22.867Z,60.96
2018-04-30T07:31:22.879Z,61.79
2018-04-30T07:32:22.856Z,61.73
2018-04-30T07:33:22.875Z,61.49
2018-04-30T07:34:22.870Z,61.57
2018-04-30T07:35:22.892Z,61.69
2018-04-30T07:36:22.937Z,61.95
2018-04-30T07:37:22.871Z,62.87
2018-04-30T07:38:22.935Z,62.26
2018-04-30T07:39:22.877Z,61.79
2018-04-30T07:40:22.874Z,60.57
2018-04-30T07:41:22.855Z,60.72
2018-04-30T07:42:22.891Z,61.04
2018-04-30T07:43:22.939Z,59.91
2018-04-30T07:44:22.883Z,60.63
2018-04-30T07:45:22.893Z,60.36
2018-04-30T07:46:22.914Z,60.46
2018-04-30T07:47:22.968Z,61.47
2018-04-30T07:48:22.974Z,60.41
2018-04-30T07:49:23.083Z,60.39
2018-04-30T07:50:23.152Z,60.62
2018-04-30T07:51:22.973Z,59.21
2018-04-30T07:52:22.894Z,58.77
2018-04-30T07:53:23.089Z,59.82
2018-04-30T07:54:22.889Z,60.11
2018-04-30T07:55:22.941Z,59.73
2018-04-30T07:56:22.978Z,57.76
2018-04-30T07:57:22.903Z,58.63
2018-04-30T07:58:22.863Z,58.23
2018-04-30T07:59:22.940Z,58.66
2018-04-30T08:00:22.921Z,58.73
2018-04-30T08:01:22.971Z,58.95
2018-04-30T08:02:22.909Z,58.98
2018-04-30T08:03:22.873Z,58.62
2018-04-30T08:04:22.892Z,59.17
2018-04-30T08:05:22.907Z,59.13
2018-04-30T08:06:22.885Z,58.05
2018-04-30T08:07:22.904Z,58.54
2018-04-30T08:08:22.905Z,57.51
2018-04-30T08:09:22.871Z,58.24
2018-04-30T08:10:22.866Z,59.12
2018-04-30T08:11:22.971Z,57.96
2018-04-30T08:12:22.926Z,57.47
2018-04-30T08:13:22.869Z,57.88
2018-04-30T08:14:22.881Z,57.37
2018-04-30T08:15:22.887Z,57.74
2018-04-30T08:16:22.961Z,57.64
2018-04-30T08:17:22.915Z,58.5
2018-04-30T08:18:22.913Z,58.81
2018-04-30T08:19:22.892Z,58.72
2018-04-30T08:20:22.904Z,59.46
2018-04-30T08:21:22.947Z,57.93
2018-04-30T08:22:22.898Z,57.78
2018-04-30T08:23:22.937Z,57.06
2018-04-30T08:24:22.943Z,57.55
2018-04-30T08:25:22.923Z,57.18
2018-04-30T08:26:23.097Z,56.5
2018-04-30T08:27:22.884Z,57.89
2018-04-30T08:28:22.868Z,56.69
2018-04-30T08:29:22.880Z,56.34
2018-04-30T08:30:22.892Z,56.66
2018-04-30T08:31:22.939Z,55.45
2018-04-30T08:32:22.879Z,55.71
2018-04-30T08:33:22.891Z,55.64
2018-04-30T08:34:22.919Z,54.91
2018-04-30T08:35:22.940Z,54.51
2018-04-30T08:36:22.897Z,55.29
2018-04-30T08:37:22.898Z,54.91
2018-04-30T08:38:22.902Z,53.83
2018-04-30T08:39:22.952Z,53.55
2018-04-30T08:40:22.931Z,53.76
2018-04-30T08:41:22.902Z,53.5
2018-04-30T08:42:22.902Z,54.58
2018-04-30T08:43:22.898Z,55.13
2018-04-30T08:44:23.235Z,54.52
2018-04-30T08:45:23.073Z,54.21
2018-04-30T08:46:23.209Z,52.72
2018-04-30T08:47:23.321Z,52.74
2018-04-30T08:48:23.210Z,52.33
2018-04-30T08:49:23.455Z,51.73
2018-04-30T08:50:24.288Z,51.44
2018-04-30T08:51:23.446Z,50.92
2018-04-30T08:52:22.897Z,51.96
2018-04-30T08:53:22.917Z,51.15
2018-04-30T08:54:22.904Z,51.53
2018-04-30T08:55:22.899Z,51.45
2018-04-30T08:56:23.640Z,52.24
2018-04-30T08:57:22.923Z,51.57
2018-04-30T08:58:22.929Z,50.98
2018-04-30T08:59:22.915Z,52.02
2018-04-30T09:00:23.076Z,52.08
2018-04-30T09:01:23.261Z,52.79
2018-04-30T09:02:22.974Z,53.53
2018-04-30T09:03:22.913Z,53.18
2018-04-30T09:04:22.944Z,53.23
2018-04-30T09:05:22.916Z,52.57
2018-04-30T09:06:22.937Z,52.27
2018-04-30T09:07:22.906Z,52.45
2018-04-30T09:08:22.910Z,53.4
2018-04-30T09:09:22.923Z,52.14
2018-04-30T09:10:22.919Z,51.56
2018-04-30T09:11:23.094Z,51.91
2018-04-30T09:12:22.930Z,51.66
2018-04-30T09:13:22.910Z,51.18
2018-04-30T09:14:22.906Z,51.57
2018-04-30T09:15:23.057Z,52.32
2018-04-30T09:16:25.891Z,52.68
2018-04-30T09:17:22.916Z,51.74
2018-04-30T09:18:24.310Z,51.3
2018-04-30T09:19:22.924Z,51.9
2018-04-30T09:20:23.007Z,51.46
2018-04-30T09:21:22.920Z,52.03
2018-04-30T09:22:22.946Z,51.75
2018-04-30T09:23:23.339Z,52.07
2018-04-30T09:24:22.931Z,51.2
2018-04-30T09:25:22.953Z,51.99
2018-04-30T09:26:22.971Z,52.29
2018-04-30T09:27:22.942Z,52.64
2018-04-30T09:28:22.969Z,52.12
2018-04-30T09:29:22.940Z,51.71
2018-04-30T09:30:23.015Z,51.48
2018-04-30T09:31:22.963Z,51.41
2018-04-30T09:32:22.971Z,50.64
2018-04-30T09:33:22.940Z,49.22
2018-04-30T09:34:22.946Z,50.5
2018-04-30T09:35:23.109Z,50.86
2018-04-30T09:36:23.020Z,50.53
2018-04-30T09:37:22.957Z,49.81
2018-04-30T09:38:22.967Z,49.65
2018-04-30T09:39:22.952Z,48.86
2018-04-30T09:40:22.935Z,48.78
2018-04-30T09:41:22.965Z,48.86
2018-04-30T09:42:22.935Z,49.19
2018-04-30T09:43:22.961Z,49.3
2018-04-30T09:44:22.914Z,48.26
2018-04-30T09:45:22.937Z,48.34
2018-04-30T09:46:22.971Z,47.99
2018-04-30T09:47:22.955Z,48.81
2018-04-30T09:48:22.958Z,49.23
2018-04-30T09:49:22.922Z,49.42
2018-04-30T09:50:22.926Z,50.04
2018-04-30T09:51:22.926Z,50.37
2018-04-30T09:52:22.961Z,49.25
2018-04-30T09:53:22.938Z,49.11
2018-04-30T09:54:22.962Z,48.8
2018-04-30T09:55:23.010Z,48.35
2018-04-30T09:56:22.926Z,48.89
2018-04-30T09:57:22.956Z,48.43
2018-04-30T09:58:22.937Z,47.89
2018-04-30T09:59:22.999Z,47.85
2018-04-30T10:00:22.924Z,47.19
2018-04-30T10:01:22.924Z,47.9
2018-04-30T10:02:22.940Z,47.12
2018-04-30T10:03:22.929Z,47.55
2018-04-30T10:04:22.942Z,47.23
2018-04-30T10:05:22.991Z,46.78
2018-04-30T10:06:23.106Z,46.65
2018-04-30T10:07:23.021Z,45.83
2018-04-30T10:08:22.939Z,47.38
2018-04-30T10:09:22.959Z,47.57
2018-04-30T10:10:22.937Z,45.69
2018-04-30T10:11:22.966Z,45.97
2018-04-30T10:12:23.045Z,46.89
2018-04-30T10:13:22.939Z,47.61
2018-04-30T10:14:23.049Z,47.66
2018-04-30T10:15:22.963Z,46.88
2018-04-30T10:16:22.961Z,47.19
2018-04-30T10:17:23.029Z,47.68
2018-04-30T10:18:23.003Z,47.35
2018-04-30T10:19:22.934Z,48.35
2018-04-30T10:20:22.938Z,48.58
2018-04-30T10:21:22.938Z,48.8
2018-04-30T10:22:22.957Z,47.24
2018-04-30T10:23:22.969Z,47.28
2018-04-30T10:24:22.947Z,46.72
2018-04-30T10:25:23.109Z,46.23
2018-04-30T10:26:22.974Z,46.29
2018-04-30T10:27:22.967Z,45.3
2018-04-30T10:28:22.958Z,46.49
2018-04-30T10:29:22.978Z,46.4
2018-04-30T10:30:22.978Z,44.3
2018-04-30T10:31:23.007Z,44.08
2018-04-30T10:32:22.952Z,44.59
2018-04-30T10:33:23.005Z,44.35
2018-04-30T10:34:23.007Z,43.18
2018-04-30T10:35:23.001Z,44.7
2018-04-30T10:36:23.024Z,44.04
2018-04-30T10:37:23.014Z,45.05
2018-04-30T10:38:23.016Z,43.99
2018-04-30T10:39:23.018Z,44.09
2018-04-30T10:40:23.017Z,44.02
2018-04-30T10:41:22.981Z,43.9
2018-04-30T10:42:23.052Z,44.06
2018-04-30T10:43:23.110Z,44.03
2018-04-30T10:44:23.492Z,44.73
2018-04-30T10:45:23.026Z,45.09
2018-04-30T10:46:23.028Z,44.06
2018-04-30T10:47:23.009Z,45.03
2018-04-30T10:48:22.999Z,45.65
2018-04-30T10:49:23.004Z,44.64
2018-04-30T10:50:23.021Z,44.4
2018-04-30T10:51:23.070Z,44.38
2018-04-30T10:52:23.033Z,43.57
2018-04-30T10:53:23.575Z,43.93
2018-04-30T10:54:23.639Z,43.67
2018-04-30T10:55:22.971Z,43.7
2018-04-30T10:56:24.179Z,43.68
2018-04-30T10:57:23.001Z,43.09
2018-04-30T10:58:23.007Z,42.89
2018-04-30T10:59:22.979Z,42.33
2018-04-30T11:00:22.981Z,42.48
2018-04-30T11:01:22.969Z,41.31
2018-04-30T11:02:22.983Z,41.94
2018-04-30T11:03:23.143Z,42.81
2018-04-30T11:04:22.978Z,42.36
2018-04-30T11:05:23.104Z,42.44
2018-04-30T11:06:22.990Z,42.79
2018-04-30T11:07:23.005Z,43.3
2018-04-30T11:08:23.041Z,43.2
2018-04-30T11:09:23.001Z,44.22
2018-04-30T11:10:22.982Z,44.62
2018-04-30T11:11:22.976Z,43.86
2018-04-30T11:12:23.063Z,45.02
2018-04-30T11:13:22.988Z,45.36
2018-04-30T11:14:23.018Z,44.96
2018-04-30T11:15:23.002Z,45.47
2018-04-30T11:16:23.006Z,46.09
2018-04-30T11:17:23.017Z,46.28
2018-04-30T11:18:23.131Z,45.01
2018-04-30T11:19:23.772Z,45.43
2018-04-30T11:20:23.094Z,44.93
2018-04-30T11:21:23.844Z,44.71
2018-04-30T11:22:23.015Z,45.39
2018-04-30T11:23:23.023Z,45.56
2018-04-30T11:24:23.118Z,45.67
2018-04-30T11:25:23.037Z,46.15
2018-04-30T11:26:22.999Z,47.77
2018-04-30T11:27:22.980Z,49.96
2018-04-30T11:28:25.237Z,51.95
2018-04-30T11:29:23.021Z,50.63
2018-04-30T11:30:23.074Z,52.39
2018-04-30T11:31:23.399Z,52.27
2018-04-30T11:32:22.990Z,49.78
2018-04-30T11:33:22.989Z,48.12
2018-04-30T11:34:22.998Z,48.78
2018-04-30T11:35:23.196Z,46.79
2018-04-30T11:36:23.016Z,46.3
2018-04-30T11:37:23.000Z,45.99
2018-04-30T11:38:23.020Z,44.7
2018-04-30T11:39:23.059Z,45.86
2018-04-30T11:40:23.023Z,46.1
2018-04-30T11:41:23.031Z,45.56
2018-04-30T11:42:23.025Z,45.1
2018-04-30T11:43:22.983Z,43.9
2018-04-30T11:44:22.989Z,44.85
2018-04-30T11:45:23.002Z,44.28
2018-04-30T11:46:23.476Z,43.4
2018-04-30T11:47:23.017Z,44.46
2018-04-30T11:48:23.015Z,44
2018-04-30T11:49:23.021Z,43.82
2018-04-30T11:50:23.004Z,42.33
2018-04-30T11:51:23.044Z,42.83
2018-04-30T11:52:23.004Z,42.67
2018-04-30T11:53:23.053Z,42.16
2018-04-30T11:54:23.022Z,43.47
2018-04-30T11:55:23.013Z,41.66
2018-04-30T11:56:23.037Z,41.64
2018-04-30T11:57:23.010Z,42.59
2018-04-30T11:58:28.571Z,42.61
2018-04-30T11:59:23.008Z,42.37
2018-04-30T12:00:23.017Z,41.39
2018-04-30T12:01:24.033Z,42.1
2018-04-30T12:02:23.107Z,42.97
2018-04-30T12:03:22.999Z,41.53
2018-04-30T12:04:22.999Z,42.25
2018-04-30T12:05:23.031Z,42.31
2018-04-30T12:06:23.020Z,42.3
2018-04-30T12:07:23.010Z,43.08
2018-04-30T12:08:23.012Z,42.14
2018-04-30T12:09:23.031Z,42.44
2018-04-30T12:10:23.030Z,42.05
2018-04-30T12:11:23.039Z,41.92
2018-04-30T12:12:23.011Z,41.18
2018-04-30T12:13:23.039Z,40.53
2018-04-30T12:14:23.468Z,41.19
2018-04-30T12:15:23.033Z,41.87
2018-04-30T12:16:23.021Z,42.04
2018-04-30T12:17:23.009Z,41.86
2018-04-30T12:18:23.043Z,41.57
2018-04-30T12:19:23.049Z,41.21
2018-04-30T12:20:23.050Z,41.77
2018-04-30T12:21:23.024Z,41.4
2018-04-30T12:22:23.050Z,41.67
2018-04-30T12:23:23.035Z,42.19
2018-04-30T12:24:23.066Z,42.47
2018-04-30T12:25:23.034Z,41.5
2018-04-30T12:26:23.035Z,40.45
2018-04-30T12:27:23.024Z,41.52
2018-04-30T12:28:23.044Z,40.9
2018-04-30T12:29:23.072Z,41.53
2018-04-30T12:30:23.055Z,41.89
2018-04-30T12:31:23.031Z,40.82
2018-04-30T12:32:23.243Z,40.44
2018-04-30T12:33:23.084Z,40.41
2018-04-30T12:34:23.059Z,40.87
2018-04-30T12:35:23.093Z,41.25
2018-04-30T12:36:23.057Z,40.15
2018-04-30T12:37:23.020Z,40.69
2018-04-30T12:38:23.032Z,41.42
2018-04-30T12:39:23.426Z,41.47
2018-04-30T12:40:23.128Z,41.28
2018-04-30T12:41:23.084Z,41.11
2018-04-30T12:42:23.041Z,40.24
2018-04-30T12:43:23.068Z,40.23
2018-04-30T12:44:23.068Z,40.61
2018-04-30T12:45:23.255Z,39.73
2018-04-30T12:46:23.105Z,39.1
2018-04-30T12:47:23.099Z,37.74
2018-04-30T12:48:23.193Z,38.12
2018-04-30T12:49:23.074Z,39.32
2018-04-30T12:50:23.061Z,39.54
2018-04-30T12:51:23.213Z,39.5
2018-04-30T12:52:23.210Z,39.14
2018-04-30T12:53:23.032Z,38.82
2018-04-30T12:54:23.279Z,38.81
2018-04-30T12:55:24.258Z,37.94